sensor_id;sensor_type;location;lat;lon;timestamp;pressure;altitude;pressure_sealevel;temperature;humidity
17521;BME280;8878;-33.370;-70.552;2024-03-29T00:02:12;92119.34;;;21.61;70.92
17521;BME280;8878;-33.370;-70.552;2024-03-29T00:04:40;92121.00;;;21.54;71.41
17521;BME280;8878;-33.370;-70.552;2024-03-29T00:07:08;92124.59;;;21.45;72.27
17521;BME280;8878;-33.370;-70.552;2024-03-29T00:09:36;92127.34;;;21.37;72.61
17521;BME280;8878;-33.370;-70.552;2024-03-29T00:12:04;92120.19;;;21.29;72.35
17521;BME280;8878;-33.370;-70.552;2024-03-29T00:14:34;92124.44;;;21.30;72.25
17521;BME280;8878;-33.370;-70.552;2024-03-29T00:17:02;92121.19;;;21.24;72.74
17521;BME280;8878;-33.370;-70.552;2024-03-29T00:19:30;92119.88;;;21.09;73.97
17521;BME280;8878;-33.370;-70.552;2024-03-29T00:21:57;92122.31;;;21.02;74.52
17521;BME280;8878;-33.370;-70.552;2024-03-29T00:24:25;92123.34;;;20.89;74.80
17521;BME280;8878;-33.370;-70.552;2024-03-29T00:26:53;92124.34;;;20.85;74.85
17521;BME280;8878;-33.370;-70.552;2024-03-29T00:29:21;92131.81;;;20.79;74.52
17521;BME280;8878;-33.370;-70.552;2024-03-29T00:31:50;92122.53;;;20.77;74.54
17521;BME280;8878;-33.370;-70.552;2024-03-29T00:34:18;92121.94;;;20.71;74.79
17521;BME280;8878;-33.370;-70.552;2024-03-29T00:36:46;92129.84;;;20.67;74.85
17521;BME280;8878;-33.370;-70.552;2024-03-29T00:39:14;92123.03;;;20.70;74.19
17521;BME280;8878;-33.370;-70.552;2024-03-29T00:41:41;92114.63;;;20.59;75.35
17521;BME280;8878;-33.370;-70.552;2024-03-29T00:44:09;92124.31;;;20.52;75.03
17521;BME280;8878;-33.370;-70.552;2024-03-29T00:46:37;92122.72;;;20.51;75.53
17521;BME280;8878;-33.370;-70.552;2024-03-29T00:49:07;92121.16;;;20.50;75.72
17521;BME280;8878;-33.370;-70.552;2024-03-29T00:51:35;92121.38;;;20.45;76.35
17521;BME280;8878;-33.370;-70.552;2024-03-29T00:54:02;92121.09;;;20.38;77.23
17521;BME280;8878;-33.370;-70.552;2024-03-29T00:56:30;92117.50;;;20.33;78.52
17521;BME280;8878;-33.370;-70.552;2024-03-29T00:58:58;92113.41;;;20.27;78.62
17521;BME280;8878;-33.370;-70.552;2024-03-29T01:01:26;92114.06;;;20.24;80.01
17521;BME280;8878;-33.370;-70.552;2024-03-29T01:03:54;92116.59;;;20.21;80.38
17521;BME280;8878;-33.370;-70.552;2024-03-29T01:06:23;92119.59;;;20.19;80.48
17521;BME280;8878;-33.370;-70.552;2024-03-29T01:08:51;92120.69;;;20.18;80.67
17521;BME280;8878;-33.370;-70.552;2024-03-29T01:11:19;92114.72;;;20.21;80.66
17521;BME280;8878;-33.370;-70.552;2024-03-29T01:13:47;92121.16;;;20.20;81.79
17521;BME280;8878;-33.370;-70.552;2024-03-29T01:16:14;92120.91;;;20.13;82.60
17521;BME280;8878;-33.370;-70.552;2024-03-29T01:18:42;92120.69;;;20.18;81.01
17521;BME280;8878;-33.370;-70.552;2024-03-29T01:21:10;92119.78;;;20.14;81.30
17521;BME280;8878;-33.370;-70.552;2024-03-29T01:23:40;92121.22;;;20.12;81.22
17521;BME280;8878;-33.370;-70.552;2024-03-29T01:26:08;92120.81;;;20.01;79.67
17521;BME280;8878;-33.370;-70.552;2024-03-29T01:28:36;92128.56;;;19.94;79.61
17521;BME280;8878;-33.370;-70.552;2024-03-29T01:31:05;92129.69;;;19.93;80.28
17521;BME280;8878;-33.370;-70.552;2024-03-29T01:33:33;92128.03;;;19.80;79.24
17521;BME280;8878;-33.370;-70.552;2024-03-29T01:36:01;92131.34;;;19.68;79.32
17521;BME280;8878;-33.370;-70.552;2024-03-29T01:38:29;92131.81;;;19.70;79.05
17521;BME280;8878;-33.370;-70.552;2024-03-29T01:40:59;92137.25;;;19.91;80.57
17521;BME280;8878;-33.370;-70.552;2024-03-29T01:43:26;92141.69;;;19.87;81.25
17521;BME280;8878;-33.370;-70.552;2024-03-29T01:45:56;92132.91;;;19.78;82.14
17521;BME280;8878;-33.370;-70.552;2024-03-29T01:48:27;92134.78;;;19.77;82.34
17521;BME280;8878;-33.370;-70.552;2024-03-29T01:50:57;92136.06;;;19.80;81.90
17521;BME280;8878;-33.370;-70.552;2024-03-29T01:53:28;92131.31;;;19.77;82.25
17521;BME280;8878;-33.370;-70.552;2024-03-29T01:56:00;92138.28;;;19.69;82.99
17521;BME280;8878;-33.370;-70.552;2024-03-29T01:58:30;92129.84;;;19.59;83.46
17521;BME280;8878;-33.370;-70.552;2024-03-29T02:01:00;92136.47;;;19.52;84.32
17521;BME280;8878;-33.370;-70.552;2024-03-29T02:03:30;92132.84;;;19.48;84.17
17521;BME280;8878;-33.370;-70.552;2024-03-29T02:06:00;92134.44;;;19.49;84.67
17521;BME280;8878;-33.370;-70.552;2024-03-29T02:08:30;92145.78;;;19.46;84.89
17521;BME280;8878;-33.370;-70.552;2024-03-29T02:11:02;92137.56;;;19.43;84.94
17521;BME280;8878;-33.370;-70.552;2024-03-29T02:13:32;92136.66;;;19.39;85.04
17521;BME280;8878;-33.370;-70.552;2024-03-29T02:16:02;92136.19;;;19.28;85.73
17521;BME280;8878;-33.370;-70.552;2024-03-29T02:18:31;92126.16;;;19.25;87.45
17521;BME280;8878;-33.370;-70.552;2024-03-29T02:21:01;92130.56;;;19.12;88.63
17521;BME280;8878;-33.370;-70.552;2024-03-29T02:23:33;92132.31;;;19.08;91.29
17521;BME280;8878;-33.370;-70.552;2024-03-29T02:26:07;92127.44;;;19.02;91.22
17521;BME280;8878;-33.370;-70.552;2024-03-29T02:28:36;92124.13;;;19.05;96.09
17521;BME280;8878;-33.370;-70.552;2024-03-29T02:31:06;92129.63;;;19.08;96.60
17521;BME280;8878;-33.370;-70.552;2024-03-29T02:33:36;92132.81;;;19.02;98.16
17521;BME280;8878;-33.370;-70.552;2024-03-29T02:36:06;92129.34;;;18.93;100.00
17521;BME280;8878;-33.370;-70.552;2024-03-29T02:38:35;92128.59;;;18.75;100.00
17521;BME280;8878;-33.370;-70.552;2024-03-29T02:41:07;92138.00;;;18.72;100.00
17521;BME280;8878;-33.370;-70.552;2024-03-29T02:43:36;92130.00;;;18.72;100.00
17521;BME280;8878;-33.370;-70.552;2024-03-29T02:46:05;92122.47;;;18.74;100.00
17521;BME280;8878;-33.370;-70.552;2024-03-29T02:48:34;92138.19;;;18.67;100.00
17521;BME280;8878;-33.370;-70.552;2024-03-29T02:51:02;92132.97;;;18.62;100.00
17521;BME280;8878;-33.370;-70.552;2024-03-29T02:53:32;92136.28;;;18.59;100.00
17521;BME280;8878;-33.370;-70.552;2024-03-29T02:56:00;92126.84;;;18.70;99.93
17521;BME280;8878;-33.370;-70.552;2024-03-29T02:58:32;92129.53;;;18.70;100.00
17521;BME280;8878;-33.370;-70.552;2024-03-29T03:01:06;92126.22;;;18.65;100.00
17521;BME280;8878;-33.370;-70.552;2024-03-29T03:03:36;92128.91;;;18.56;100.00
17521;BME280;8878;-33.370;-70.552;2024-03-29T03:06:06;92127.13;;;18.43;100.00
17521;BME280;8878;-33.370;-70.552;2024-03-29T03:08:35;92133.75;;;18.37;100.00
17521;BME280;8878;-33.370;-70.552;2024-03-29T03:11:21;92131.56;;;18.39;100.00
17521;BME280;8878;-33.370;-70.552;2024-03-29T03:13:52;92131.56;;;18.39;100.00
17521;BME280;8878;-33.370;-70.552;2024-03-29T03:16:22;92137.97;;;18.38;100.00
17521;BME280;8878;-33.370;-70.552;2024-03-29T03:18:51;92135.00;;;18.39;100.00
17521;BME280;8878;-33.370;-70.552;2024-03-29T03:21:21;92139.09;;;18.37;100.00
17521;BME280;8878;-33.370;-70.552;2024-03-29T03:23:49;92129.00;;;18.34;100.00
17521;BME280;8878;-33.370;-70.552;2024-03-29T03:26:19;92132.47;;;18.34;100.00
17521;BME280;8878;-33.370;-70.552;2024-03-29T03:28:47;92133.56;;;18.33;100.00
17521;BME280;8878;-33.370;-70.552;2024-03-29T03:31:18;92132.47;;;18.26;100.00
17521;BME280;8878;-33.370;-70.552;2024-03-29T03:33:46;92136.25;;;18.25;100.00
17521;BME280;8878;-33.370;-70.552;2024-03-29T03:36:16;92134.03;;;18.27;100.00
17521;BME280;8878;-33.370;-70.552;2024-03-29T03:38:44;92124.00;;;18.24;100.00
17521;BME280;8878;-33.370;-70.552;2024-03-29T03:41:14;92130.59;;;18.18;100.00
17521;BME280;8878;-33.370;-70.552;2024-03-29T03:43:42;92130.88;;;18.16;100.00
17521;BME280;8878;-33.370;-70.552;2024-03-29T03:46:11;92136.84;;;18.13;100.00
17521;BME280;8878;-33.370;-70.552;2024-03-29T03:48:41;92130.72;;;18.13;100.00
17521;BME280;8878;-33.370;-70.552;2024-03-29T03:51:11;92130.56;;;18.09;100.00
17521;BME280;8878;-33.370;-70.552;2024-03-29T03:53:39;92126.28;;;17.99;100.00
17521;BME280;8878;-33.370;-70.552;2024-03-29T03:56:09;92130.06;;;17.90;100.00
17521;BME280;8878;-33.370;-70.552;2024-03-29T03:58:37;92124.25;;;17.88;100.00
17521;BME280;8878;-33.370;-70.552;2024-03-29T04:01:07;92132.25;;;17.88;100.00
17521;BME280;8878;-33.370;-70.552;2024-03-29T04:03:36;92132.84;;;17.85;100.00
17521;BME280;8878;-33.370;-70.552;2024-03-29T04:06:08;92136.78;;;17.87;100.00
17521;BME280;8878;-33.370;-70.552;2024-03-29T04:08:36;92128.31;;;17.85;100.00
17521;BME280;8878;-33.370;-70.552;2024-03-29T04:11:06;92133.16;;;17.83;100.00
17521;BME280;8878;-33.370;-70.552;2024-03-29T04:13:34;92129.25;;;17.81;100.00
17521;BME280;8878;-33.370;-70.552;2024-03-29T04:16:06;92123.41;;;17.79;100.00
17521;BME280;8878;-33.370;-70.552;2024-03-29T04:18:35;92124.38;;;17.74;100.00
17521;BME280;8878;-33.370;-70.552;2024-03-29T04:21:07;92125.28;;;17.70;100.00
17521;BME280;8878;-33.370;-70.552;2024-03-29T04:23:36;92123.53;;;17.65;100.00
17521;BME280;8878;-33.370;-70.552;2024-03-29T04:26:05;92122.38;;;17.57;100.00
17521;BME280;8878;-33.370;-70.552;2024-03-29T04:28:34;92128.38;;;17.63;100.00
17521;BME280;8878;-33.370;-70.552;2024-03-29T04:31:04;92130.88;;;17.59;100.00
17521;BME280;8878;-33.370;-70.552;2024-03-29T04:33:32;92124.56;;;17.55;100.00
17521;BME280;8878;-33.370;-70.552;2024-03-29T04:36:03;92127.56;;;17.54;100.00
17521;BME280;8878;-33.370;-70.552;2024-03-29T04:38:33;92123.78;;;17.55;100.00
17521;BME280;8878;-33.370;-70.552;2024-03-29T04:41:03;92131.66;;;17.60;100.00
17521;BME280;8878;-33.370;-70.552;2024-03-29T04:43:32;92120.09;;;17.65;100.00
17521;BME280;8878;-33.370;-70.552;2024-03-29T04:46:09;92128.38;;;17.63;100.00
17521;BME280;8878;-33.370;-70.552;2024-03-29T04:48:39;92124.63;;;17.64;100.00
17521;BME280;8878;-33.370;-70.552;2024-03-29T04:51:09;92122.75;;;17.65;100.00
17521;BME280;8878;-33.370;-70.552;2024-03-29T04:53:40;92108.44;;;17.60;100.00
17521;BME280;8878;-33.370;-70.552;2024-03-29T04:56:10;92113.97;;;17.64;100.00
17521;BME280;8878;-33.370;-70.552;2024-03-29T04:58:41;92103.78;;;17.66;100.00
17521;BME280;8878;-33.370;-70.552;2024-03-29T05:01:10;92115.03;;;17.63;100.00
17521;BME280;8878;-33.370;-70.552;2024-03-29T05:03:40;92110.31;;;17.60;100.00
17521;BME280;8878;-33.370;-70.552;2024-03-29T05:06:09;92106.59;;;17.61;100.00
17521;BME280;8878;-33.370;-70.552;2024-03-29T05:08:41;92098.59;;;17.61;100.00
17521;BME280;8878;-33.370;-70.552;2024-03-29T05:11:11;92094.50;;;17.64;100.00
17521;BME280;8878;-33.370;-70.552;2024-03-29T05:13:41;92098.75;;;17.65;100.00
17521;BME280;8878;-33.370;-70.552;2024-03-29T05:16:11;92093.25;;;17.61;100.00
17521;BME280;8878;-33.370;-70.552;2024-03-29T05:18:41;92088.78;;;17.56;100.00
17521;BME280;8878;-33.370;-70.552;2024-03-29T05:21:11;92083.16;;;17.58;100.00
17521;BME280;8878;-33.370;-70.552;2024-03-29T05:23:42;92084.44;;;17.60;99.92
17521;BME280;8878;-33.370;-70.552;2024-03-29T05:26:12;92088.00;;;17.56;98.60
17521;BME280;8878;-33.370;-70.552;2024-03-29T05:28:41;92084.69;;;17.50;99.89
17521;BME280;8878;-33.370;-70.552;2024-03-29T05:31:12;92089.44;;;17.53;99.84
17521;BME280;8878;-33.370;-70.552;2024-03-29T05:33:43;92083.75;;;17.55;100.00
17521;BME280;8878;-33.370;-70.552;2024-03-29T05:36:13;92081.28;;;17.58;100.00
17521;BME280;8878;-33.370;-70.552;2024-03-29T05:38:45;92080.16;;;17.51;100.00
17521;BME280;8878;-33.370;-70.552;2024-03-29T05:41:15;92082.81;;;17.51;100.00
17521;BME280;8878;-33.370;-70.552;2024-03-29T05:43:44;92081.41;;;17.45;100.00
17521;BME280;8878;-33.370;-70.552;2024-03-29T05:46:16;92079.66;;;17.40;100.00
17521;BME280;8878;-33.370;-70.552;2024-03-29T05:48:46;92073.06;;;17.38;100.00
17521;BME280;8878;-33.370;-70.552;2024-03-29T05:51:15;92077.41;;;17.34;100.00
17521;BME280;8878;-33.370;-70.552;2024-03-29T05:53:47;92078.53;;;17.33;100.00
17521;BME280;8878;-33.370;-70.552;2024-03-29T05:56:16;92071.94;;;17.30;100.00
17521;BME280;8878;-33.370;-70.552;2024-03-29T05:58:46;92064.41;;;17.32;100.00
17521;BME280;8878;-33.370;-70.552;2024-03-29T06:01:16;92057.31;;;17.28;100.00
17521;BME280;8878;-33.370;-70.552;2024-03-29T06:03:45;92071.72;;;17.18;100.00
17521;BME280;8878;-33.370;-70.552;2024-03-29T06:06:15;92059.34;;;17.22;100.00
17521;BME280;8878;-33.370;-70.552;2024-03-29T06:08:51;92050.75;;;17.25;100.00
17521;BME280;8878;-33.370;-70.552;2024-03-29T06:11:20;92045.88;;;17.27;100.00
17521;BME280;8878;-33.370;-70.552;2024-03-29T06:13:50;92051.53;;;17.26;100.00
17521;BME280;8878;-33.370;-70.552;2024-03-29T06:16:36;92051.34;;;17.22;100.00
17521;BME280;8878;-33.370;-70.552;2024-03-29T06:19:23;92055.09;;;17.21;100.00
17521;BME280;8878;-33.370;-70.552;2024-03-29T06:21:55;92056.53;;;17.18;100.00
17521;BME280;8878;-33.370;-70.552;2024-03-29T06:24:26;92048.34;;;17.15;100.00
17521;BME280;8878;-33.370;-70.552;2024-03-29T06:26:58;92044.09;;;17.14;100.00
17521;BME280;8878;-33.370;-70.552;2024-03-29T06:29:27;92043.94;;;17.10;100.00
17521;BME280;8878;-33.370;-70.552;2024-03-29T06:31:56;92042.84;;;17.11;100.00
17521;BME280;8878;-33.370;-70.552;2024-03-29T06:34:26;92043.94;;;17.10;100.00
17521;BME280;8878;-33.370;-70.552;2024-03-29T06:36:58;92047.06;;;17.12;100.00
17521;BME280;8878;-33.370;-70.552;2024-03-29T06:39:29;92051.31;;;17.13;100.00
17521;BME280;8878;-33.370;-70.552;2024-03-29T06:41:59;92049.28;;;17.10;100.00
17521;BME280;8878;-33.370;-70.552;2024-03-29T06:44:29;92053.34;;;17.08;100.00
17521;BME280;8878;-33.370;-70.552;2024-03-29T06:46:58;92051.28;;;17.05;100.00
17521;BME280;8878;-33.370;-70.552;2024-03-29T06:49:28;92045.44;;;16.94;100.00
17521;BME280;8878;-33.370;-70.552;2024-03-29T06:51:59;92043.84;;;16.93;100.00
17521;BME280;8878;-33.370;-70.552;2024-03-29T06:54:30;92035.06;;;16.93;100.00
17521;BME280;8878;-33.370;-70.552;2024-03-29T06:57:00;92033.19;;;16.93;100.00
17521;BME280;8878;-33.370;-70.552;2024-03-29T06:59:29;92038.38;;;16.90;100.00
17521;BME280;8878;-33.370;-70.552;2024-03-29T07:01:59;92037.56;;;16.89;100.00
17521;BME280;8878;-33.370;-70.552;2024-03-29T07:04:29;92033.03;;;16.90;100.00
17521;BME280;8878;-33.370;-70.552;2024-03-29T07:06:59;92027.38;;;16.91;100.00
17521;BME280;8878;-33.370;-70.552;2024-03-29T07:09:30;92030.03;;;16.91;100.00
17521;BME280;8878;-33.370;-70.552;2024-03-29T07:11:59;92028.78;;;16.89;100.00
17521;BME280;8878;-33.370;-70.552;2024-03-29T07:14:29;92025.78;;;16.81;100.00
17521;BME280;8878;-33.370;-70.552;2024-03-29T07:17:01;92028.25;;;16.78;100.00
17521;BME280;8878;-33.370;-70.552;2024-03-29T07:19:31;92032.00;;;16.77;100.00
17521;BME280;8878;-33.370;-70.552;2024-03-29T07:22:00;92030.47;;;16.76;100.00
17521;BME280;8878;-33.370;-70.552;2024-03-29T07:24:32;92035.13;;;16.70;100.00
17521;BME280;8878;-33.370;-70.552;2024-03-29T07:27:01;92037.31;;;16.68;100.00
17521;BME280;8878;-33.370;-70.552;2024-03-29T07:29:31;92031.00;;;16.64;100.00
17521;BME280;8878;-33.370;-70.552;2024-03-29T07:32:01;92028.66;;;16.63;100.00
17521;BME280;8878;-33.370;-70.552;2024-03-29T07:34:31;92036.75;;;16.58;100.00
17521;BME280;8878;-33.370;-70.552;2024-03-29T07:37:00;92034.69;;;16.55;100.00
17521;BME280;8878;-33.370;-70.552;2024-03-29T07:39:32;92042.78;;;16.50;100.00
17521;BME280;8878;-33.370;-70.552;2024-03-29T07:42:02;92047.03;;;16.51;100.00
17521;BME280;8878;-33.370;-70.552;2024-03-29T07:44:31;92041.13;;;16.54;100.00
17521;BME280;8878;-33.370;-70.552;2024-03-29T07:47:01;92048.63;;;16.52;100.00
17521;BME280;8878;-33.370;-70.552;2024-03-29T07:49:30;92044.66;;;16.49;100.00
17521;BME280;8878;-33.370;-70.552;2024-03-29T07:52:02;92051.56;;;16.50;100.00
17521;BME280;8878;-33.370;-70.552;2024-03-29T07:54:34;92054.72;;;16.52;100.00
17521;BME280;8878;-33.370;-70.552;2024-03-29T07:57:04;92048.63;;;16.52;100.00
17521;BME280;8878;-33.370;-70.552;2024-03-29T07:59:35;92046.53;;;16.49;100.00
17521;BME280;8878;-33.370;-70.552;2024-03-29T08:02:05;92054.72;;;16.52;100.00
17521;BME280;8878;-33.370;-70.552;2024-03-29T08:04:35;92052.38;;;16.51;100.00
17521;BME280;8878;-33.370;-70.552;2024-03-29T08:07:05;92040.91;;;16.50;100.00
17521;BME280;8878;-33.370;-70.552;2024-03-29T08:09:37;92041.22;;;16.49;100.00
17521;BME280;8878;-33.370;-70.552;2024-03-29T08:12:07;92041.34;;;16.43;100.00
17521;BME280;8878;-33.370;-70.552;2024-03-29T08:14:37;92045.59;;;16.44;100.00
17521;BME280;8878;-33.370;-70.552;2024-03-29T08:17:07;92046.31;;;16.36;100.00
17521;BME280;8878;-33.370;-70.552;2024-03-29T08:19:39;92052.69;;;16.27;100.00
17521;BME280;8878;-33.370;-70.552;2024-03-29T08:22:09;92050.13;;;16.22;100.00
17521;BME280;8878;-33.370;-70.552;2024-03-29T08:24:41;92050.31;;;16.25;100.00
17521;BME280;8878;-33.370;-70.552;2024-03-29T08:27:11;92052.06;;;16.30;100.00
17521;BME280;8878;-33.370;-70.552;2024-03-29T08:29:42;92049.91;;;16.32;100.00
17521;BME280;8878;-33.370;-70.552;2024-03-29T08:32:12;92053.44;;;16.27;100.00
17521;BME280;8878;-33.370;-70.552;2024-03-29T08:34:42;92051.28;;;16.29;100.00
17521;BME280;8878;-33.370;-70.552;2024-03-29T08:37:11;92060.06;;;16.30;100.00
17521;BME280;8878;-33.370;-70.552;2024-03-29T08:39:42;92058.97;;;16.31;100.00
17521;BME280;8878;-33.370;-70.552;2024-03-29T08:42:12;92064.47;;;16.34;100.00
17521;BME280;8878;-33.370;-70.552;2024-03-29T08:44:43;92060.91;;;16.39;100.00
17521;BME280;8878;-33.370;-70.552;2024-03-29T08:47:13;92064.44;;;16.48;100.00
17521;BME280;8878;-33.370;-70.552;2024-03-29T08:49:43;92068.47;;;16.45;100.00
17521;BME280;8878;-33.370;-70.552;2024-03-29T08:52:12;92060.63;;;16.40;100.00
17521;BME280;8878;-33.370;-70.552;2024-03-29T08:54:44;92065.25;;;16.35;100.00
17521;BME280;8878;-33.370;-70.552;2024-03-29T08:57:13;92067.25;;;16.29;100.00
17521;BME280;8878;-33.370;-70.552;2024-03-29T08:59:43;92061.63;;;16.31;100.00
17521;BME280;8878;-33.370;-70.552;2024-03-29T09:02:12;92068.69;;;16.35;100.00
17521;BME280;8878;-33.370;-70.552;2024-03-29T09:04:42;92067.03;;;16.39;100.00
17521;BME280;8878;-33.370;-70.552;2024-03-29T09:07:12;92069.38;;;16.41;100.00
17521;BME280;8878;-33.370;-70.552;2024-03-29T09:09:44;92075.91;;;16.35;100.00
17521;BME280;8878;-33.370;-70.552;2024-03-29T09:12:13;92080.63;;;16.38;100.00
17521;BME280;8878;-33.370;-70.552;2024-03-29T09:14:43;92088.13;;;16.36;100.00
17521;BME280;8878;-33.370;-70.552;2024-03-29T09:17:13;92090.25;;;16.25;100.00
17521;BME280;8878;-33.370;-70.552;2024-03-29T09:19:43;92103.84;;;16.24;100.00
17521;BME280;8878;-33.370;-70.552;2024-03-29T09:22:12;92099.03;;;16.26;100.00
17521;BME280;8878;-33.370;-70.552;2024-03-29T09:24:44;92099.97;;;16.30;100.00
17521;BME280;8878;-33.370;-70.552;2024-03-29T09:27:14;92104.81;;;16.28;100.00
17521;BME280;8878;-33.370;-70.552;2024-03-29T09:29:47;92097.75;;;16.23;100.00
17521;BME280;8878;-33.370;-70.552;2024-03-29T09:32:17;92095.19;;;16.18;100.00
17521;BME280;8878;-33.370;-70.552;2024-03-29T09:34:47;92106.06;;;16.08;100.00
17521;BME280;8878;-33.370;-70.552;2024-03-29T09:37:16;92116.22;;;16.06;100.00
17521;BME280;8878;-33.370;-70.552;2024-03-29T09:39:49;92113.09;;;16.04;100.00
17521;BME280;8878;-33.370;-70.552;2024-03-29T09:42:20;92109.34;;;16.05;100.00
17521;BME280;8878;-33.370;-70.552;2024-03-29T09:44:52;92111.22;;;16.04;100.00
17521;BME280;8878;-33.370;-70.552;2024-03-29T09:47:24;92108.34;;;16.01;100.00
17521;BME280;8878;-33.370;-70.552;2024-03-29T09:49:55;92115.84;;;15.99;100.00
17521;BME280;8878;-33.370;-70.552;2024-03-29T09:52:26;92124.72;;;15.94;100.00
17521;BME280;8878;-33.370;-70.552;2024-03-29T09:54:59;92130.16;;;15.89;100.00
17521;BME280;8878;-33.370;-70.552;2024-03-29T09:57:29;92125.13;;;15.88;100.00
17521;BME280;8878;-33.370;-70.552;2024-03-29T09:59:59;92131.53;;;15.87;100.00
17521;BME280;8878;-33.370;-70.552;2024-03-29T10:02:32;92129.47;;;15.84;100.00
17521;BME280;8878;-33.370;-70.552;2024-03-29T10:05:04;92135.38;;;15.81;100.00
17521;BME280;8878;-33.370;-70.552;2024-03-29T10:07:35;92143.47;;;15.76;100.00
17521;BME280;8878;-33.370;-70.552;2024-03-29T10:10:08;92133.81;;;15.66;100.00
17521;BME280;8878;-33.370;-70.552;2024-03-29T10:12:38;92139.13;;;15.66;100.00
17521;BME280;8878;-33.370;-70.552;2024-03-29T10:15:09;92144.28;;;15.62;100.00
17521;BME280;8878;-33.370;-70.552;2024-03-29T10:17:45;92151.16;;;15.63;100.00
17521;BME280;8878;-33.370;-70.552;2024-03-29T10:20:17;92139.94;;;15.66;100.00
17521;BME280;8878;-33.370;-70.552;2024-03-29T10:22:47;92149.47;;;15.68;100.00
17521;BME280;8878;-33.370;-70.552;2024-03-29T10:25:18;92143.66;;;15.65;100.00
17521;BME280;8878;-33.370;-70.552;2024-03-29T10:27:48;92155.38;;;15.64;100.00
17521;BME280;8878;-33.370;-70.552;2024-03-29T10:30:18;92147.41;;;15.64;100.00
17521;BME280;8878;-33.370;-70.552;2024-03-29T10:32:48;92149.97;;;15.70;100.00
17521;BME280;8878;-33.370;-70.552;2024-03-29T10:35:18;92147.78;;;15.72;100.00
17521;BME280;8878;-33.370;-70.552;2024-03-29T10:37:47;92149.66;;;15.71;100.00
17521;BME280;8878;-33.370;-70.552;2024-03-29T10:40:21;92159.50;;;15.71;100.00
17521;BME280;8878;-33.370;-70.552;2024-03-29T10:42:52;92156.84;;;15.71;100.00
17521;BME280;8878;-33.370;-70.552;2024-03-29T10:45:23;92155.59;;;15.68;100.00
17521;BME280;8878;-33.370;-70.552;2024-03-29T10:47:53;92151.34;;;15.67;100.00
17521;BME280;8878;-33.370;-70.552;2024-03-29T10:50:24;92160.63;;;15.70;100.00
17521;BME280;8878;-33.370;-70.552;2024-03-29T10:52:55;92151.53;;;15.71;100.00
17521;BME280;8878;-33.370;-70.552;2024-03-29T10:55:33;92161.88;;;15.72;100.00
17521;BME280;8878;-33.370;-70.552;2024-03-29T10:58:04;92160.81;;;15.73;100.00
17521;BME280;8878;-33.370;-70.552;2024-03-29T11:00:37;92160.81;;;15.73;100.00
17521;BME280;8878;-33.370;-70.552;2024-03-29T11:03:12;92156.09;;;15.70;100.00
17521;BME280;8878;-33.370;-70.552;2024-03-29T11:05:47;92166.13;;;15.73;100.00
17521;BME280;8878;-33.370;-70.552;2024-03-29T11:08:21;92170.06;;;15.76;100.00
17521;BME280;8878;-33.370;-70.552;2024-03-29T11:10:57;92173.72;;;15.80;100.00
17521;BME280;8878;-33.370;-70.552;2024-03-29T11:13:32;92165.31;;;15.86;100.00
17521;BME280;8878;-33.370;-70.552;2024-03-29T11:16:03;92180.88;;;15.93;100.00
17521;BME280;8878;-33.370;-70.552;2024-03-29T11:18:33;92178.84;;;15.90;100.00
17521;BME280;8878;-33.370;-70.552;2024-03-29T11:21:05;92188.97;;;15.88;100.00
17521;BME280;8878;-33.370;-70.552;2024-03-29T11:23:37;92190.28;;;15.90;100.00
17521;BME280;8878;-33.370;-70.552;2024-03-29T11:26:08;92186.13;;;15.98;100.00
17521;BME280;8878;-33.370;-70.552;2024-03-29T11:28:37;92197.22;;;16.00;100.00
17521;BME280;8878;-33.370;-70.552;2024-03-29T11:31:09;92201.75;;;15.99;100.00
17521;BME280;8878;-33.370;-70.552;2024-03-29T11:33:45;92206.81;;;16.01;100.00
17521;BME280;8878;-33.370;-70.552;2024-03-29T11:36:17;92208.59;;;16.05;100.00
17521;BME280;8878;-33.370;-70.552;2024-03-29T11:38:48;92205.03;;;16.10;100.00
17521;BME280;8878;-33.370;-70.552;2024-03-29T11:41:20;92203.94;;;16.11;100.00
17521;BME280;8878;-33.370;-70.552;2024-03-29T11:43:51;92211.63;;;16.13;100.00
17521;BME280;8878;-33.370;-70.552;2024-03-29T11:46:21;92202.88;;;16.12;100.00
17521;BME280;8878;-33.370;-70.552;2024-03-29T11:48:51;92210.75;;;16.17;100.00
17521;BME280;8878;-33.370;-70.552;2024-03-29T11:51:21;92205.31;;;16.22;100.00
17521;BME280;8878;-33.370;-70.552;2024-03-29T11:53:51;92222.06;;;16.23;100.00
17521;BME280;8878;-33.370;-70.552;2024-03-29T11:56:23;92225.88;;;16.44;100.00
17521;BME280;8878;-33.370;-70.552;2024-03-29T11:58:54;92232.66;;;16.64;100.00
17521;BME280;8878;-33.370;-70.552;2024-03-29T12:01:26;92226.03;;;16.75;100.00
17521;BME280;8878;-33.370;-70.552;2024-03-29T12:03:56;92237.53;;;16.84;100.00
17521;BME280;8878;-33.370;-70.552;2024-03-29T12:06:26;92237.13;;;16.91;100.00
17521;BME280;8878;-33.370;-70.552;2024-03-29T12:08:56;92236.22;;;16.95;100.00
17521;BME280;8878;-33.370;-70.552;2024-03-29T12:11:28;92236.09;;;17.00;100.00
17521;BME280;8878;-33.370;-70.552;2024-03-29T12:13:58;92241.41;;;17.00;100.00
17521;BME280;8878;-33.370;-70.552;2024-03-29T12:16:28;92238.63;;;17.05;100.00
17521;BME280;8878;-33.370;-70.552;2024-03-29T12:18:57;92240.56;;;17.13;100.00
17521;BME280;8878;-33.370;-70.552;2024-03-29T12:21:27;92243.13;;;17.18;100.00
17521;BME280;8878;-33.370;-70.552;2024-03-29T12:23:55;92238.16;;;17.26;100.00
17521;BME280;8878;-33.370;-70.552;2024-03-29T12:26:27;92241.66;;;17.35;100.00
17521;BME280;8878;-33.370;-70.552;2024-03-29T12:28:58;92242.38;;;17.49;100.00
17521;BME280;8878;-33.370;-70.552;2024-03-29T12:31:27;92246.66;;;17.58;100.00
17521;BME280;8878;-33.370;-70.552;2024-03-29T12:33:57;92245.47;;;17.65;98.64
17521;BME280;8878;-33.370;-70.552;2024-03-29T12:36:26;92247.56;;;17.76;99.20
17521;BME280;8878;-33.370;-70.552;2024-03-29T12:38:56;92240.38;;;17.85;97.88
17521;BME280;8878;-33.370;-70.552;2024-03-29T12:41:31;92243.41;;;17.92;95.90
17521;BME280;8878;-33.370;-70.552;2024-03-29T12:44:02;92238.91;;;18.02;95.25
17521;BME280;8878;-33.370;-70.552;2024-03-29T12:46:33;92238.44;;;18.08;94.75
17521;BME280;8878;-33.370;-70.552;2024-03-29T12:49:03;92240.50;;;18.20;92.93